sensor_id;sensor_type;location;lat;lon;timestamp;P1;durP1;ratioP1;P2;durP2;ratioP2
16731;SDS011;8484;50.904;9.192;2023-04-03T00:00:30;3.40;;;3.20;;
16731;SDS011;8484;50.904;9.192;2023-04-03T00:02:57;3.80;;;3.50;;
16731;SDS011;8484;50.904;9.192;2023-04-03T00:05:25;3.63;;;3.33;;
16731;SDS011;8484;50.904;9.192;2023-04-03T00:07:53;4.17;;;3.27;;
16731;SDS011;8484;50.904;9.192;2023-04-03T00:10:20;3.83;;;3.53;;
16731;SDS011;8484;50.904;9.192;2023-04-03T00:12:47;3.87;;;3.50;;
16731;SDS011;8484;50.904;9.192;2023-04-03T00:15:14;3.90;;;3.47;;
16731;SDS011;8484;50.904;9.192;2023-04-03T00:17:41;3.63;;;3.40;;
16731;SDS011;8484;50.904;9.192;2023-04-03T00:20:08;3.97;;;3.67;;
16731;SDS011;8484;50.904;9.192;2023-04-03T00:22:36;3.67;;;3.37;;
16731;SDS011;8484;50.904;9.192;2023-04-03T00:25:04;3.70;;;3.40;;
16731;SDS011;8484;50.904;9.192;2023-04-03T00:27:32;4.27;;;3.47;;
16731;SDS011;8484;50.904;9.192;2023-04-03T00:29:59;3.67;;;3.47;;
16731;SDS011;8484;50.904;9.192;2023-04-03T00:32:25;4.23;;;3.87;;
16731;SDS011;8484;50.904;9.192;2023-04-03T00:34:52;4.60;;;3.50;;
16731;SDS011;8484;50.904;9.192;2023-04-03T00:37:19;3.70;;;3.40;;
16731;SDS011;8484;50.904;9.192;2023-04-03T00:39:46;4.57;;;3.30;;
16731;SDS011;8484;50.904;9.192;2023-04-03T00:42:14;3.30;;;3.10;;
16731;SDS011;8484;50.904;9.192;2023-04-03T00:47:46;3.37;;;3.10;;
16731;SDS011;8484;50.904;9.192;2023-04-03T00:50:12;3.53;;;3.23;;
16731;SDS011;8484;50.904;9.192;2023-04-03T00:52:39;3.30;;;3.00;;
16731;SDS011;8484;50.904;9.192;2023-04-03T00:55:07;3.63;;;3.30;;
16731;SDS011;8484;50.904;9.192;2023-04-03T00:57:37;3.37;;;3.13;;
16731;SDS011;8484;50.904;9.192;2023-04-03T01:00:06;4.00;;;3.70;;
16731;SDS011;8484;50.904;9.192;2023-04-03T01:02:36;5.17;;;3.60;;
16731;SDS011;8484;50.904;9.192;2023-04-03T01:05:03;4.73;;;3.77;;
16731;SDS011;8484;50.904;9.192;2023-04-03T01:07:31;3.87;;;3.53;;
16731;SDS011;8484;50.904;9.192;2023-04-03T01:10:04;3.90;;;3.60;;
16731;SDS011;8484;50.904;9.192;2023-04-03T01:12:34;3.57;;;3.30;;
16731;SDS011;8484;50.904;9.192;2023-04-03T01:15:05;4.17;;;3.80;;
16731;SDS011;8484;50.904;9.192;2023-04-03T01:17:34;3.90;;;3.63;;
16731;SDS011;8484;50.904;9.192;2023-04-03T01:23:03;4.37;;;4.07;;
16731;SDS011;8484;50.904;9.192;2023-04-03T01:25:39;4.90;;;4.50;;
16731;SDS011;8484;50.904;9.192;2023-04-03T01:28:09;4.57;;;4.17;;
16731;SDS011;8484;50.904;9.192;2023-04-03T01:30:40;4.73;;;4.43;;
16731;SDS011;8484;50.904;9.192;2023-04-03T01:33:13;5.03;;;4.67;;
16731;SDS011;8484;50.904;9.192;2023-04-03T01:35:40;4.87;;;4.57;;
16731;SDS011;8484;50.904;9.192;2023-04-03T01:38:07;5.00;;;4.60;;
16731;SDS011;8484;50.904;9.192;2023-04-03T01:40:35;5.00;;;4.67;;
16731;SDS011;8484;50.904;9.192;2023-04-03T01:43:02;4.70;;;4.30;;
16731;SDS011;8484;50.904;9.192;2023-04-03T01:45:29;4.90;;;4.50;;
16731;SDS011;8484;50.904;9.192;2023-04-03T01:47:56;4.90;;;4.50;;
16731;SDS011;8484;50.904;9.192;2023-04-03T01:50:24;4.50;;;4.20;;
16731;SDS011;8484;50.904;9.192;2023-04-03T01:52:51;4.60;;;4.30;;
16731;SDS011;8484;50.904;9.192;2023-04-03T01:55:18;4.53;;;4.23;;
16731;SDS011;8484;50.904;9.192;2023-04-03T01:57:45;5.20;;;4.70;;
16731;SDS011;8484;50.904;9.192;2023-04-03T02:00:12;6.13;;;4.43;;
16731;SDS011;8484;50.904;9.192;2023-04-03T02:02:40;4.73;;;4.33;;
16731;SDS011;8484;50.904;9.192;2023-04-03T02:05:07;4.20;;;3.90;;
16731;SDS011;8484;50.904;9.192;2023-04-03T02:07:36;3.97;;;3.77;;
16731;SDS011;8484;50.904;9.192;2023-04-03T02:10:03;4.30;;;4.00;;
16731;SDS011;8484;50.904;9.192;2023-04-03T02:12:31;4.17;;;3.80;;
16731;SDS011;8484;50.904;9.192;2023-04-03T02:14:58;4.40;;;4.00;;
16731;SDS011;8484;50.904;9.192;2023-04-03T02:17:26;5.10;;;4.10;;
16731;SDS011;8484;50.904;9.192;2023-04-03T02:19:52;4.23;;;3.83;;
16731;SDS011;8484;50.904;9.192;2023-04-03T02:22:19;5.03;;;3.60;;
16731;SDS011;8484;50.904;9.192;2023-04-03T02:24:47;3.90;;;3.60;;
16731;SDS011;8484;50.904;9.192;2023-04-03T02:27:14;3.97;;;3.40;;
16731;SDS011;8484;50.904;9.192;2023-04-03T02:29:41;3.93;;;3.50;;
16731;SDS011;8484;50.904;9.192;2023-04-03T02:32:08;3.97;;;3.73;;
16731;SDS011;8484;50.904;9.192;2023-04-03T02:34:35;3.87;;;3.50;;
16731;SDS011;8484;50.904;9.192;2023-04-03T02:37:02;3.60;;;3.40;;
16731;SDS011;8484;50.904;9.192;2023-04-03T02:39:29;5.37;;;3.87;;
16731;SDS011;8484;50.904;9.192;2023-04-03T02:41:57;4.63;;;3.60;;
16731;SDS011;8484;50.904;9.192;2023-04-03T02:44:24;3.87;;;3.50;;
16731;SDS011;8484;50.904;9.192;2023-04-03T02:46:51;3.60;;;3.40;;
16731;SDS011;8484;50.904;9.192;2023-04-03T02:49:22;4.10;;;3.80;;
16731;SDS011;8484;50.904;9.192;2023-04-03T02:51:49;6.10;;;3.90;;
16731;SDS011;8484;50.904;9.192;2023-04-03T02:54:16;3.60;;;3.40;;
16731;SDS011;8484;50.904;9.192;2023-04-03T02:56:44;3.87;;;3.47;;
16731;SDS011;8484;50.904;9.192;2023-04-03T02:59:12;3.77;;;3.50;;
16731;SDS011;8484;50.904;9.192;2023-04-03T03:01:39;4.20;;;3.80;;
16731;SDS011;8484;50.904;9.192;2023-04-03T03:04:06;4.23;;;3.83;;
16731;SDS011;8484;50.904;9.192;2023-04-03T03:06:33;4.07;;;3.77;;
16731;SDS011;8484;50.904;9.192;2023-04-03T03:08:59;4.13;;;3.70;;
16731;SDS011;8484;50.904;9.192;2023-04-03T03:11:26;3.97;;;3.63;;
16731;SDS011;8484;50.904;9.192;2023-04-03T03:13:53;4.30;;;3.70;;
16731;SDS011;8484;50.904;9.192;2023-04-03T03:16:21;4.17;;;3.77;;
16731;SDS011;8484;50.904;9.192;2023-04-03T03:18:48;4.00;;;3.70;;
16731;SDS011;8484;50.904;9.192;2023-04-03T03:21:15;3.70;;;3.40;;
16731;SDS011;8484;50.904;9.192;2023-04-03T03:23:42;3.90;;;3.60;;
16731;SDS011;8484;50.904;9.192;2023-04-03T03:26:09;5.33;;;4.33;;
16731;SDS011;8484;50.904;9.192;2023-04-03T03:28:37;4.00;;;3.70;;
16731;SDS011;8484;50.904;9.192;2023-04-03T03:31:06;3.83;;;3.63;;
16731;SDS011;8484;50.904;9.192;2023-04-03T03:33:34;3.80;;;3.50;;
16731;SDS011;8484;50.904;9.192;2023-04-03T03:36:01;4.10;;;3.77;;
16731;SDS011;8484;50.904;9.192;2023-04-03T03:38:28;4.47;;;4.07;;
16731;SDS011;8484;50.904;9.192;2023-04-03T03:40:55;4.10;;;3.70;;
16731;SDS011;8484;50.904;9.192;2023-04-03T03:43:22;4.10;;;3.80;;
16731;SDS011;8484;50.904;9.192;2023-04-03T03:45:50;5.07;;;4.20;;
16731;SDS011;8484;50.904;9.192;2023-04-03T03:48:17;4.47;;;3.80;;
16731;SDS011;8484;50.904;9.192;2023-04-03T03:50:46;4.37;;;3.97;;
16731;SDS011;8484;50.904;9.192;2023-04-03T03:53:13;3.80;;;3.60;;
16731;SDS011;8484;50.904;9.192;2023-04-03T03:55:40;4.43;;;4.03;;
16731;SDS011;8484;50.904;9.192;2023-04-03T03:58:07;4.60;;;4.30;;
16731;SDS011;8484;50.904;9.192;2023-04-03T04:00:34;4.33;;;4.00;;
16731;SDS011;8484;50.904;9.192;2023-04-03T04:03:01;4.13;;;3.80;;
16731;SDS011;8484;50.904;9.192;2023-04-03T04:05:28;4.50;;;4.20;;
16731;SDS011;8484;50.904;9.192;2023-04-03T04:07:57;4.53;;;4.10;;
16731;SDS011;8484;50.904;9.192;2023-04-03T04:10:24;5.43;;;4.40;;
16731;SDS011;8484;50.904;9.192;2023-04-03T04:12:51;4.43;;;4.10;;
16731;SDS011;8484;50.904;9.192;2023-04-03T04:15:18;5.60;;;4.50;;
16731;SDS011;8484;50.904;9.192;2023-04-03T04:17:46;4.40;;;4.10;;
16731;SDS011;8484;50.904;9.192;2023-04-03T04:20:13;4.43;;;4.03;;
16731;SDS011;8484;50.904;9.192;2023-04-03T04:22:41;4.40;;;4.00;;
16731;SDS011;8484;50.904;9.192;2023-04-03T04:25:09;5.23;;;4.07;;
16731;SDS011;8484;50.904;9.192;2023-04-03T04:27:36;4.60;;;4.20;;
16731;SDS011;8484;50.904;9.192;2023-04-03T04:30:03;2.50;;;2.30;;
16731;SDS011;8484;50.904;9.192;2023-04-03T04:32:31;5.33;;;4.10;;
16731;SDS011;8484;50.904;9.192;2023-04-03T04:34:58;4.50;;;4.20;;
16731;SDS011;8484;50.904;9.192;2023-04-03T04:37:26;4.70;;;4.30;;
16731;SDS011;8484;50.904;9.192;2023-04-03T04:39:53;17.70;;;4.40;;
16731;SDS011;8484;50.904;9.192;2023-04-03T04:42:21;4.30;;;4.00;;
16731;SDS011;8484;50.904;9.192;2023-04-03T04:44:48;5.50;;;4.60;;
16731;SDS011;8484;50.904;9.192;2023-04-03T04:47:15;5.20;;;4.70;;
16731;SDS011;8484;50.904;9.192;2023-04-03T04:49:42;4.80;;;4.40;;
16731;SDS011;8484;50.904;9.192;2023-04-03T04:52:09;5.27;;;4.40;;
16731;SDS011;8484;50.904;9.192;2023-04-03T04:54:36;6.27;;;4.60;;
16731;SDS011;8484;50.904;9.192;2023-04-03T04:57:03;5.13;;;4.63;;
16731;SDS011;8484;50.904;9.192;2023-04-03T04:59:34;5.80;;;4.83;;
16731;SDS011;8484;50.904;9.192;2023-04-03T05:02:00;5.40;;;4.83;;
16731;SDS011;8484;50.904;9.192;2023-04-03T05:04:28;5.73;;;4.77;;
16731;SDS011;8484;50.904;9.192;2023-04-03T05:06:55;5.80;;;5.20;;
16731;SDS011;8484;50.904;9.192;2023-04-03T05:09:22;5.90;;;5.30;;
16731;SDS011;8484;50.904;9.192;2023-04-03T05:11:49;5.63;;;5.13;;
16731;SDS011;8484;50.904;9.192;2023-04-03T05:14:16;6.77;;;5.50;;
16731;SDS011;8484;50.904;9.192;2023-04-03T05:16:47;5.30;;;4.80;;
16731;SDS011;8484;50.904;9.192;2023-04-03T05:19:17;5.80;;;5.30;;
16731;SDS011;8484;50.904;9.192;2023-04-03T05:21:44;5.27;;;4.77;;
16731;SDS011;8484;50.904;9.192;2023-04-03T05:24:11;5.13;;;4.63;;
16731;SDS011;8484;50.904;9.192;2023-04-03T05:26:38;6.27;;;4.60;;
16731;SDS011;8484;50.904;9.192;2023-04-03T05:29:05;4.77;;;4.37;;
16731;SDS011;8484;50.904;9.192;2023-04-03T05:31:32;5.97;;;4.20;;
16731;SDS011;8484;50.904;9.192;2023-04-03T05:34:00;7.57;;;4.50;;
16731;SDS011;8484;50.904;9.192;2023-04-03T05:36:27;5.90;;;4.40;;
16731;SDS011;8484;50.904;9.192;2023-04-03T05:38:54;6.80;;;4.40;;
16731;SDS011;8484;50.904;9.192;2023-04-03T05:41:22;4.83;;;4.30;;
16731;SDS011;8484;50.904;9.192;2023-04-03T05:43:49;5.90;;;4.57;;
16731;SDS011;8484;50.904;9.192;2023-04-03T05:46:17;4.93;;;4.40;;
16731;SDS011;8484;50.904;9.192;2023-04-03T05:48:46;4.83;;;4.33;;
16731;SDS011;8484;50.904;9.192;2023-04-03T05:51:15;9.93;;;4.47;;
16731;SDS011;8484;50.904;9.192;2023-04-03T05:53:43;5.40;;;4.37;;
16731;SDS011;8484;50.904;9.192;2023-04-03T05:56:11;4.90;;;4.47;;
16731;SDS011;8484;50.904;9.192;2023-04-03T05:58:38;5.37;;;4.67;;
16731;SDS011;8484;50.904;9.192;2023-04-03T06:01:05;5.93;;;4.77;;
16731;SDS011;8484;50.904;9.192;2023-04-03T06:03:34;5.07;;;4.60;;
16731;SDS011;8484;50.904;9.192;2023-04-03T06:06:02;4.63;;;4.23;;
16731;SDS011;8484;50.904;9.192;2023-04-03T06:08:32;6.20;;;4.93;;
16731;SDS011;8484;50.904;9.192;2023-04-03T06:10:59;5.00;;;4.60;;
16731;SDS011;8484;50.904;9.192;2023-04-03T06:13:28;6.20;;;5.60;;
16731;SDS011;8484;50.904;9.192;2023-04-03T06:15:55;7.20;;;4.90;;
16731;SDS011;8484;50.904;9.192;2023-04-03T06:18:23;5.83;;;5.33;;
16731;SDS011;8484;50.904;9.192;2023-04-03T06:20:50;6.40;;;4.93;;
16731;SDS011;8484;50.904;9.192;2023-04-03T06:23:17;5.67;;;4.70;;
16731;SDS011;8484;50.904;9.192;2023-04-03T06:25:46;5.60;;;4.63;;
16731;SDS011;8484;50.904;9.192;2023-04-03T06:28:13;4.80;;;4.30;;
16731;SDS011;8484;50.904;9.192;2023-04-03T06:30:40;4.50;;;4.10;;
16731;SDS011;8484;50.904;9.192;2023-04-03T06:33:07;8.60;;;4.23;;
16731;SDS011;8484;50.904;9.192;2023-04-03T06:35:34;4.73;;;4.30;;
16731;SDS011;8484;50.904;9.192;2023-04-03T06:38:01;6.93;;;4.93;;
16731;SDS011;8484;50.904;9.192;2023-04-03T06:40:34;4.70;;;4.30;;
16731;SDS011;8484;50.904;9.192;2023-04-03T06:43:02;4.60;;;4.17;;
16731;SDS011;8484;50.904;9.192;2023-04-03T06:45:30;4.77;;;4.37;;
16731;SDS011;8484;50.904;9.192;2023-04-03T06:47:57;4.67;;;4.37;;
16731;SDS011;8484;50.904;9.192;2023-04-03T06:50:24;5.70;;;5.20;;
16731;SDS011;8484;50.904;9.192;2023-04-03T06:52:51;4.90;;;4.43;;
16731;SDS011;8484;50.904;9.192;2023-04-03T06:55:18;5.10;;;4.70;;
16731;SDS011;8484;50.904;9.192;2023-04-03T06:57:45;5.30;;;4.90;;
16731;SDS011;8484;50.904;9.192;2023-04-03T07:00:14;5.97;;;5.47;;
16731;SDS011;8484;50.904;9.192;2023-04-03T07:02:42;5.80;;;5.30;;
16731;SDS011;8484;50.904;9.192;2023-04-03T07:05:09;5.23;;;4.83;;
16731;SDS011;8484;50.904;9.192;2023-04-03T07:07:36;5.73;;;5.23;;
16731;SDS011;8484;50.904;9.192;2023-04-03T07:10:04;4.53;;;4.23;;
16731;SDS011;8484;50.904;9.192;2023-04-03T07:12:31;4.17;;;3.77;;
16731;SDS011;8484;50.904;9.192;2023-04-03T07:14:58;4.40;;;4.00;;
16731;SDS011;8484;50.904;9.192;2023-04-03T07:17:26;4.50;;;4.10;;
16731;SDS011;8484;50.904;9.192;2023-04-03T07:19:53;4.27;;;3.87;;
16731;SDS011;8484;50.904;9.192;2023-04-03T07:22:20;4.30;;;3.90;;
16731;SDS011;8484;50.904;9.192;2023-04-03T07:24:47;4.53;;;4.03;;
16731;SDS011;8484;50.904;9.192;2023-04-03T07:27:14;4.33;;;3.93;;
16731;SDS011;8484;50.904;9.192;2023-04-03T07:29:42;4.23;;;3.87;;
16731;SDS011;8484;50.904;9.192;2023-04-03T07:32:10;3.80;;;3.50;;
16731;SDS011;8484;50.904;9.192;2023-04-03T07:34:38;3.53;;;3.00;;
16731;SDS011;8484;50.904;9.192;2023-04-03T07:37:05;3.80;;;3.50;;
16731;SDS011;8484;50.904;9.192;2023-04-03T07:39:34;3.67;;;3.20;;
16731;SDS011;8484;50.904;9.192;2023-04-03T07:42:01;3.60;;;3.30;;
16731;SDS011;8484;50.904;9.192;2023-04-03T07:44:28;4.67;;;3.53;;
16731;SDS011;8484;50.904;9.192;2023-04-03T07:46:58;4.00;;;3.37;;
16731;SDS011;8484;50.904;9.192;2023-04-03T07:49:29;4.07;;;3.10;;
16731;SDS011;8484;50.904;9.192;2023-04-03T07:51:58;3.53;;;3.00;;
16731;SDS011;8484;50.904;9.192;2023-04-03T07:54:28;3.77;;;3.47;;
16731;SDS011;8484;50.904;9.192;2023-04-03T07:56:56;3.63;;;3.33;;
16731;SDS011;8484;50.904;9.192;2023-04-03T07:59:23;4.77;;;3.10;;
16731;SDS011;8484;50.904;9.192;2023-04-03T08:01:54;3.70;;;3.40;;
16731;SDS011;8484;50.904;9.192;2023-04-03T08:04:21;3.30;;;3.00;;
16731;SDS011;8484;50.904;9.192;2023-04-03T08:06:48;3.30;;;3.00;;
16731;SDS011;8484;50.904;9.192;2023-04-03T08:09:17;3.40;;;3.10;;
16731;SDS011;8484;50.904;9.192;2023-04-03T08:11:45;3.33;;;3.07;;
16731;SDS011;8484;50.904;9.192;2023-04-03T08:14:13;3.67;;;3.33;;
16731;SDS011;8484;50.904;9.192;2023-04-03T08:16:46;3.27;;;3.03;;
16731;SDS011;8484;50.904;9.192;2023-04-03T08:19:18;3.97;;;3.33;;
16731;SDS011;8484;50.904;9.192;2023-04-03T08:21:48;3.93;;;3.63;;
16731;SDS011;8484;50.904;9.192;2023-04-03T08:24:20;3.30;;;3.00;;
16731;SDS011;8484;50.904;9.192;2023-04-03T08:26:49;3.07;;;2.80;;
16731;SDS011;8484;50.904;9.192;2023-04-03T08:29:21;3.70;;;3.00;;
16731;SDS011;8484;50.904;9.192;2023-04-03T08:31:47;4.53;;;3.23;;
16731;SDS011;8484;50.904;9.192;2023-04-03T08:34:15;3.87;;;3.57;;
16731;SDS011;8484;50.904;9.192;2023-04-03T08:36:45;3.87;;;3.57;;
16731;SDS011;8484;50.904;9.192;2023-04-03T08:39:14;4.20;;;3.50;;
16731;SDS011;8484;50.904;9.192;2023-04-03T08:41:43;3.63;;;3.33;;
16731;SDS011;8484;50.904;9.192;2023-04-03T08:44:15;3.17;;;2.97;;
16731;SDS011;8484;50.904;9.192;2023-04-03T08:47:04;4.23;;;3.83;;
16731;SDS011;8484;50.904;9.192;2023-04-03T08:49:44;3.50;;;3.30;;
16731;SDS011;8484;50.904;9.192;2023-04-03T08:52:17;3.60;;;3.30;;
16731;SDS011;8484;50.904;9.192;2023-04-03T08:54:49;3.60;;;3.30;;
16731;SDS011;8484;50.904;9.192;2023-04-03T08:57:24;3.73;;;3.50;;
16731;SDS011;8484;50.904;9.192;2023-04-03T08:59:55;4.07;;;3.20;;
16731;SDS011;8484;50.904;9.192;2023-04-03T09:02:25;2.83;;;2.63;;
16731;SDS011;8484;50.904;9.192;2023-04-03T09:05:09;2.90;;;2.70;;
16731;SDS011;8484;50.904;9.192;2023-04-03T09:07:39;3.10;;;2.80;;
16731;SDS011;8484;50.904;9.192;2023-04-03T09:10:10;3.47;;;2.77;;
16731;SDS011;8484;50.904;9.192;2023-04-03T09:12:42;2.80;;;2.60;;
16731;SDS011;8484;50.904;9.192;2023-04-03T09:15:16;3.20;;;2.90;;
16731;SDS011;8484;50.904;9.192;2023-04-03T09:17:58;3.03;;;2.80;;
16731;SDS011;8484;50.904;9.192;2023-04-03T09:20:32;2.90;;;2.60;;
16731;SDS011;8484;50.904;9.192;2023-04-03T09:23:15;2.70;;;2.50;;
16731;SDS011;8484;50.904;9.192;2023-04-03T09:25:53;2.90;;;2.70;;
16731;SDS011;8484;50.904;9.192;2023-04-03T09:28:29;3.03;;;2.77;;
16731;SDS011;8484;50.904;9.192;2023-04-03T09:31:01;2.50;;;2.33;;
16731;SDS011;8484;50.904;9.192;2023-04-03T09:33:44;2.70;;;2.50;;
16731;SDS011;8484;50.904;9.192;2023-04-03T09:36:12;2.63;;;2.43;;
16731;SDS011;8484;50.904;9.192;2023-04-03T09:38:40;2.87;;;2.67;;
16731;SDS011;8484;50.904;9.192;2023-04-03T09:41:10;2.70;;;2.50;;
16731;SDS011;8484;50.904;9.192;2023-04-03T09:43:51;2.70;;;2.50;;
16731;SDS011;8484;50.904;9.192;2023-04-03T09:46:24;3.10;;;2.60;;
16731;SDS011;8484;50.904;9.192;2023-04-03T09:48:56;3.10;;;2.90;;
16731;SDS011;8484;50.904;9.192;2023-04-03T09:51:25;2.90;;;2.70;;
16731;SDS011;8484;50.904;9.192;2023-04-03T09:53:59;2.57;;;2.37;;
16731;SDS011;8484;50.904;9.192;2023-04-03T09:56:28;2.90;;;2.70;;
16731;SDS011;8484;50.904;9.192;2023-04-03T09:59:12;3.50;;;2.97;;
16731;SDS011;8484;50.904;9.192;2023-04-03T10:01:42;2.57;;;2.40;;
16731;SDS011;8484;50.904;9.192;2023-04-03T10:04:24;2.90;;;2.70;;
16731;SDS011;8484;50.904;9.192;2023-04-03T10:06:52;3.07;;;2.80;;
16731;SDS011;8484;50.904;9.192;2023-04-03T10:09:26;3.13;;;2.93;;
16731;SDS011;8484;50.904;9.192;2023-04-03T10:12:01;3.00;;;2.80;;
16731;SDS011;8484;50.904;9.192;2023-04-03T10:14:34;2.90;;;2.60;;
16731;SDS011;8484;50.904;9.192;2023-04-03T10:17:06;2.97;;;2.70;;
16731;SDS011;8484;50.904;9.192;2023-04-03T10:19:43;3.30;;;3.00;;
16731;SDS011;8484;50.904;9.192;2023-04-03T10:22:22;3.23;;;2.90;;
16731;SDS011;8484;50.904;9.192;2023-04-03T10:25:04;3.57;;;2.93;;
16731;SDS011;8484;50.904;9.192;2023-04-03T10:27:42;3.37;;;3.03;;
16731;SDS011;8484;50.904;9.192;2023-04-03T10:30:24;2.53;;;2.43;;
16731;SDS011;8484;50.904;9.192;2023-04-03T10:33:26;2.80;;;2.60;;
16731;SDS011;8484;50.904;9.192;2023-04-03T10:36:11;2.60;;;2.40;;
16731;SDS011;8484;50.904;9.192;2023-04-03T10:38:48;2.70;;;2.50;;
16731;SDS011;8484;50.904;9.192;2023-04-03T10:41:24;3.63;;;2.57;;
16731;SDS011;8484;50.904;9.192;2023-04-03T10:44:03;2.50;;;2.40;;
16731;SDS011;8484;50.904;9.192;2023-04-03T10:46:41;2.50;;;2.40;;
16731;SDS011;8484;50.904;9.192;2023-04-03T10:49:17;3.10;;;2.87;;
16731;SDS011;8484;50.904;9.192;2023-04-03T10:52:06;2.97;;;2.80;;
16731;SDS011;8484;50.904;9.192;2023-04-03T10:54:43;3.20;;;2.90;;
16731;SDS011;8484;50.904;9.192;2023-04-03T10:57:19;3.03;;;2.77;;
16731;SDS011;8484;50.904;9.192;2023-04-03T10:59:51;2.70;;;2.50;;
16731;SDS011;8484;50.904;9.192;2023-04-03T11:02:25;2.70;;;2.50;;
16731;SDS011;8484;50.904;9.192;2023-04-03T11:04:56;2.40;;;2.30;;
16731;SDS011;8484;50.904;9.192;2023-04-03T11:07:28;2.93;;;2.73;;
16731;SDS011;8484;50.904;9.192;2023-04-03T11:10:02;3.33;;;3.03;;
16731;SDS011;8484;50.904;9.192;2023-04-03T11:12:36;3.30;;;3.00;;
16731;SDS011;8484;50.904;9.192;2023-04-03T11:15:16;3.00;;;2.70;;
16731;SDS011;8484;50.904;9.192;2023-04-03T11:17:53;4.00;;;3.17;;
16731;SDS011;8484;50.904;9.192;2023-04-03T11:20:28;2.60;;;2.50;;
16731;SDS011;8484;50.904;9.192;2023-04-03T11:22:58;2.73;;;2.60;;
16731;SDS011;8484;50.904;9.192;2023-04-03T11:25:29;2.80;;;2.60;;
16731;SDS011;8484;50.904;9.192;2023-04-03T11:27:58;3.17;;;2.90;;
16731;SDS011;8484;50.904;9.192;2023-04-03T11:30:33;3.27;;;2.80;;
16731;SDS011;8484;50.904;9.192;2023-04-03T11:33:14;3.00;;;2.80;;
16731;SDS011;8484;50.904;9.192;2023-04-03T11:35:55;2.80;;;2.60;;
16731;SDS011;8484;50.904;9.192;2023-04-03T11:38:27;3.40;;;3.10;;
16731;SDS011;8484;50.904;9.192;2023-04-03T11:40:59;3.43;;;3.17;;
16731;SDS011;8484;50.904;9.192;2023-04-03T11:43:39;2.80;;;2.60;;
16731;SDS011;8484;50.904;9.192;2023-04-03T11:46:08;2.90;;;2.70;;
16731;SDS011;8484;50.904;9.192;2023-04-03T11:48:47;3.20;;;2.90;;
16731;SDS011;8484;50.904;9.192;2023-04-03T12:09:29;2.60;;;2.50;;
16731;SDS011;8484;50.904;9.192;2023-04-03T12:14:51;2.90;;;2.70;;
16731;SDS011;8484;50.904;9.192;2023-04-03T12:17:20;3.00;;;2.63;;
16731;SDS011;8484;50.904;9.192;2023-04-03T12:19:54;3.00;;;2.80;;
16731;SDS011;8484;50.904;9.192;2023-04-03T12:22:21;3.23;;;2.93;;
16731;SDS011;8484;50.904;9.192;2023-04-03T12:24:55;2.90;;;2.70;;
16731;SDS011;8484;50.904;9.192;2023-04-03T12:27:33;2.80;;;2.60;;
16731;SDS011;8484;50.904;9.192;2023-04-03T12:30:15;2.60;;;2.40;;
16731;SDS011;8484;50.904;9.192;2023-04-03T12:32:57;3.17;;;2.97;;
16731;SDS011;8484;50.904;9.192;2023-04-03T12:35:43;3.07;;;2.87;;
16731;SDS011;8484;50.904;9.192;2023-04-03T12:41:31;2.70;;;2.50;;
16731;SDS011;8484;50.904;9.192;2023-04-03T12:44:10;5.57;;;2.77;;
16731;SDS011;8484;50.904;9.192;2023-04-03T12:46:53;2.83;;;2.63;;
16731;SDS011;8484;50.904;9.192;2023-04-03T12:49:24;3.10;;;2.60;;
16731;SDS011;8484;50.904;9.192;2023-04-03T12:52:01;2.90;;;2.70;;
16731;SDS011;8484;50.904;9.192;2023-04-03T12:54:35;2.87;;;2.67;;
16731;SDS011;8484;50.904;9.192;2023-04-03T12:57:11;3.03;;;2.87;;
16731;SDS011;8484;50.904;9.192;2023-04-03T12:59:39;3.70;;;3.10;;
16731;SDS011;8484;50.904;9.192;2023-04-03T13:02:12;3.00;;;2.80;;
16731;SDS011;8484;50.904;9.192;2023-04-03T13:04:46;2.90;;;2.67;;
16731;SDS011;8484;50.904;9.192;2023-04-03T13:07:22;2.77;;;2.50;;
16731;SDS011;8484;50.904;9.192;2023-04-03T13:09:57;2.50;;;2.40;;
16731;SDS011;8484;50.904;9.192;2023-04-03T13:12:30;2.90;;;2.70;;
16731;SDS011;8484;50.904;9.192;2023-04-03T13:15:01;3.07;;;2.87;;
16731;SDS011;8484;50.904;9.192;2023-04-03T13:17:38;3.13;;;2.93;;
16731;SDS011;8484;50.904;9.192;2023-04-03T13:20:14;3.00;;;2.80;;
16731;SDS011;8484;50.904;9.192;2023-04-03T13:22:50;3.03;;;2.80;;
16731;SDS011;8484;50.904;9.192;2023-04-03T13:25:21;2.97;;;2.77;;
16731;SDS011;8484;50.904;9.192;2023-04-03T13:27:53;3.07;;;2.80;;
16731;SDS011;8484;50.904;9.192;2023-04-03T13:30:24;2.90;;;2.70;;
16731;SDS011;8484;50.904;9.192;2023-04-03T13:32:58;2.80;;;2.60;;
16731;SDS011;8484;50.904;9.192;2023-04-03T13:35:37;3.00;;;2.80;;
16731;SDS011;8484;50.904;9.192;2023-04-03T13:38:22;2.83;;;2.57;;
16731;SDS011;8484;50.904;9.192;2023-04-03T13:40:54;2.73;;;2.63;;
16731;SDS011;8484;50.904;9.192;2023-04-03T13:43:25;2.60;;;2.50;;
16731;SDS011;8484;50.904;9.192;2023-04-03T13:45:54;3.23;;;3.03;;
16731;SDS011;8484;50.904;9.192;2023-04-03T13:48:25;3.13;;;2.60;;
16731;SDS011;8484;50.904;9.192;2023-04-03T13:50:53;3.20;;;2.50;;
16731;SDS011;8484;50.904;9.192;2023-04-03T13:53:28;2.90;;;2.70;;
16731;SDS011;8484;50.904;9.192;2023-04-03T13:55:59;2.53;;;2.43;;
16731;SDS011;8484;50.904;9.192;2023-04-03T13:58:32;2.73;;;2.53;;
16731;SDS011;8484;50.904;9.192;2023-04-03T14:01:05;2.87;;;2.70;;
16731;SDS011;8484;50.904;9.192;2023-04-03T14:03:39;2.93;;;2.70;;
16731;SDS011;8484;50.904;9.192;2023-04-03T14:06:13;2.80;;;2.60;;
16731;SDS011;8484;50.904;9.192;2023-04-03T14:08:45;3.00;;;2.80;;
16731;SDS011;8484;50.904;9.192;2023-04-03T14:11:17;3.77;;;2.90;;
16731;SDS011;8484;50.904;9.192;2023-04-03T14:13:50;2.60;;;2.50;;
16731;SDS011;8484;50.904;9.192;2023-04-03T14:16:18;2.63;;;2.43;;
16731;SDS011;8484;50.904;9.192;2023-04-03T14:18:51;2.70;;;2.50;;
16731;SDS011;8484;50.904;9.192;2023-04-03T14:21:22;2.80;;;2.60;;
16731;SDS011;8484;50.904;9.192;2023-04-03T14:23:53;2.90;;;2.70;;
16731;SDS011;8484;50.904;9.192;2023-04-03T14:26:22;3.47;;;2.70;;
16731;SDS011;8484;50.904;9.192;2023-04-03T14:28:52;3.03;;;2.83;;
16731;SDS011;8484;50.904;9.192;2023-04-03T14:31:23;3.33;;;3.00;;
16731;SDS011;8484;50.904;9.192;2023-04-03T14:33:50;3.30;;;3.03;;
16731;SDS011;8484;50.904;9.192;2023-04-03T14:36:18;3.80;;;2.90;;
16731;SDS011;8484;50.904;9.192;2023-04-03T14:38:48;2.80;;;2.60;;
16731;SDS011;8484;50.904;9.192;2023-04-03T14:41:18;2.83;;;2.63;;
16731;SDS011;8484;50.904;9.192;2023-04-03T14:43:49;3.60;;;3.00;;
16731;SDS011;8484;50.904;9.192;2023-04-03T14:46:19;2.80;;;2.60;;
16731;SDS011;8484;50.904;9.192;2023-04-03T14:48:49;3.50;;;2.90;;
16731;SDS011;8484;50.904;9.192;2023-04-03T14:51:16;3.40;;;2.80;;
16731;SDS011;8484;50.904;9.192;2023-04-03T14:53:46;3.00;;;2.70;;
16731;SDS011;8484;50.904;9.192;2023-04-03T14:56:15;3.03;;;2.83;;
16731;SDS011;8484;50.904;9.192;2023-04-03T14:58:53;2.80;;;2.60;;
16731;SDS011;8484;50.904;9.192;2023-04-03T15:01:22;2.90;;;2.70;;
16731;SDS011;8484;50.904;9.192;2023-04-03T15:03:50;3.10;;;2.90;;
16731;SDS011;8484;50.904;9.192;2023-04-03T15:06:17;3.67;;;3.37;;
16731;SDS011;8484;50.904;9.192;2023-04-03T15:08:46;3.37;;;3.07;;
16731;SDS011;8484;50.904;9.192;2023-04-03T15:11:14;3.83;;;3.53;;
16731;SDS011;8484;50.904;9.192;2023-04-03T15:13:43;3.50;;;3.20;;
16731;SDS011;8484;50.904;9.192;2023-04-03T15:16:14;3.47;;;3.17;;
16731;SDS011;8484;50.904;9.192;2023-04-03T15:18:43;3.50;;;3.30;;
16731;SDS011;8484;50.904;9.192;2023-04-03T15:21:11;3.67;;;3.30;;
16731;SDS011;8484;50.904;9.192;2023-04-03T15:23:47;3.63;;;3.30;;
16731;SDS011;8484;50.904;9.192;2023-04-03T15:26:14;3.57;;;3.30;;
16731;SDS011;8484;50.904;9.192;2023-04-03T15:28:42;3.77;;;3.33;;
16731;SDS011;8484;50.904;9.192;2023-04-03T15:31:12;3.30;;;2.97;;
16731;SDS011;8484;50.904;9.192;2023-04-03T15:33:39;3.30;;;3.10;;
16731;SDS011;8484;50.904;9.192;2023-04-03T15:36:07;3.57;;;3.27;;
16731;SDS011;8484;50.904;9.192;2023-04-03T15:38:35;3.57;;;3.27;;
16731;SDS011;8484;50.904;9.192;2023-04-03T15:41:06;3.50;;;3.20;;
16731;SDS011;8484;50.904;9.192;2023-04-03T15:43:33;3.20;;;2.90;;
16731;SDS011;8484;50.904;9.192;2023-04-03T15:46:02;4.00;;;3.70;;
16731;SDS011;8484;50.904;9.192;2023-04-03T15:48:31;3.17;;;2.87;;